Time;durP1;ratioP1;P1;durP2;ratioP2;P2;SDS_P1;SDS_P2;PMS_P1;PMS_P2;Temp;Humidity;BMP_temperature;BMP_pressure;BME280_temperature;BME280_humidity;BME280_pressure;Samples;Min_cycle;Max_cycle;Signal;HPM_P1;HPM_P2
2022/05/31 00:01:41;;;;;;;6.82;5.32;;;;;;;9.56;100.00;96046.91;5056522;28;20083;-49
2022/05/31 00:04:10;;;;;;;6.00;5.32;;;;;;;9.56;100.00;96046.91;5056859;28;20750;-49
2022/05/31 00:06:39;;;;;;;5.50;5.00;;;;;;;9.47;100.00;96038.13;5056787;28;20466;-50
2022/05/31 00:09:07;;;;;;;5.65;4.80;;;;;;;9.42;100.00;96036.91;5063332;28;20099;-49
2022/05/31 00:11:37;;;;;;;5.45;4.95;;;;;;;9.35;100.00;96041.09;5067252;28;20122;-49
2022/05/31 00:14:06;;;;;;;7.22;5.00;;;;;;;9.37;100.00;96039.16;5068777;28;20546;-51
2022/05/31 00:16:34;;;;;;;6.22;5.05;;;;;;;9.45;100.00;96040.06;5067115;28;20078;-50
2022/05/31 00:19:03;;;;;;;7.10;4.90;;;;;;;9.50;100.00;96035.19;5067765;28;20138;-52
2022/05/31 00:21:49;;;;;;;4.90;4.50;;;;;;;9.59;100.00;96030.84;5063666;28;20083;-49
2022/05/31 00:24:20;;;;;;;4.55;4.15;;;;;;;9.41;100.00;96030.00;5064371;28;20072;-51
2022/05/31 00:26:50;;;;;;;4.50;4.10;;;;;;;9.10;100.00;96030.28;5059945;28;20091;-50
2022/05/31 00:29:18;;;;;;;4.13;3.75;;;;;;;9.14;100.00;96031.66;5062780;28;20541;-50
2022/05/31 00:31:48;;;;;;;4.32;3.95;;;;;;;9.07;100.00;96029.75;5063289;28;20546;-50
2022/05/31 00:34:18;;;;;;;4.20;3.90;;;;;;;8.98;100.00;96029.66;5063564;28;20527;-51
2022/05/31 00:36:48;;;;;;;4.23;3.93;;;;;;;8.94;100.00;96030.09;5060850;28;20063;-50
2022/05/31 00:39:17;;;;;;;4.45;4.15;;;;;;;8.77;100.00;96029.91;5062934;28;20886;-54
2022/05/31 00:42:02;;;;;;;5.07;4.57;;;;;;;8.70;100.00;96028.78;5059372;28;20531;-51
2022/05/31 00:44:31;;;;;;;5.40;4.90;;;;;;;8.67;100.00;96029.09;5057306;28;20072;-52
2022/05/31 00:47:01;;;;;;;4.97;4.57;;;;;;;8.68;100.00;96027.28;5064596;28;20462;-53
2022/05/31 00:49:32;;;;;;;5.88;5.28;;;;;;;8.72;100.00;96034.75;5061674;28;20073;-47
2022/05/31 00:52:03;;;;;;;6.43;5.43;;;;;;;8.69;100.00;96032.41;5062993;28;20079;-49
2022/05/31 00:54:34;;;;;;;5.78;5.10;;;;;;;8.53;100.00;96030.38;5068342;28;20080;-52
2022/05/31 00:57:04;;;;;;;;;;;;;;;8.62;100.00;96039.19;5061087;28;20081;-48
2022/05/31 00:59:34;;;;;;;6.03;5.50;;;;;;;8.44;100.00;96043.53;5061481;28;19951;-51
2022/05/31 01:02:03;;;;;;;;;;;;;;;8.54;100.00;96036.47;5068430;28;20060;-52
2022/05/31 01:04:35;;;;;;;5.55;5.05;;;;;;;8.46;100.00;96038.94;5059973;28;19951;-49
2022/05/31 01:07:05;;;;;;;6.40;5.30;;;;;;;8.37;100.00;96039.78;5063218;28;20073;-48
2022/05/31 01:09:33;;;;;;;5.40;4.90;;;;;;;8.30;100.00;96042.97;5058897;28;20084;-51
2022/05/31 01:12:05;;;;;;;7.38;5.65;;;;;;;8.36;100.00;96032.84;5059714;28;20091;-47
2022/05/31 01:14:35;;;;;;;5.78;5.28;;;;;;;8.33;100.00;96044.50;5061847;28;20057;-47
2022/05/31 01:17:06;;;;;;;7.32;6.07;;;;;;;8.35;100.00;96044.34;5060039;28;20489;-51
2022/05/31 01:22:22;;;;;;;5.90;5.40;;;;;;;8.43;100.00;96039.25;5049101;28;20129;-51
2022/05/31 01:24:54;;;;;;;5.63;5.13;;;;;;;8.44;100.00;96040.91;5053931;28;20823;-52
2022/05/31 01:27:33;;;;;;;7.75;6.20;;;;;;;8.50;100.00;96037.72;5059223;28;20080;-48
2022/05/31 01:30:04;;;;;;;6.03;5.43;;;;;;;8.38;100.00;96039.66;5054321;28;20472;-51
2022/05/31 01:32:35;;;;;;;6.35;5.25;;;;;;;8.39;100.00;96035.25;5058784;28;20452;-52
2022/05/31 01:35:06;;;;;;;5.50;4.97;;;;;;;8.46;100.00;96036.31;5061331;28;20491;-47
2022/05/31 01:37:39;;;;;;;8.30;5.43;;;;;;;8.62;100.00;96031.31;5055667;28;20057;-52
2022/05/31 01:40:12;;;;;;;5.50;4.97;;;;;;;8.68;100.00;96022.84;5057079;28;20620;-50
2022/05/31 01:42:42;;;;;;;5.07;4.68;;;;;;;8.61;100.00;96020.97;5060974;28;20061;-49
2022/05/31 01:45:12;;;;;;;5.22;4.72;;;;;;;8.73;100.00;96025.88;5050790;28;20092;-52
2022/05/31 01:47:41;;;;;;;9.60;4.60;;;;;;;8.88;100.00;96022.78;5059703;28;20071;-54
2022/05/31 01:50:12;;;;;;;6.43;4.72;;;;;;;8.97;100.00;96017.47;5067759;28;20553;-50
2022/05/31 01:52:42;;;;;;;7.57;5.20;;;;;;;8.88;100.00;96018.38;5055829;28;20082;-52
2022/05/31 01:55:11;;;;;;;5.30;4.78;;;;;;;8.76;100.00;96017.69;5067740;28;20476;-48
2022/05/31 01:57:43;;;;;;;5.22;4.82;;;;;;;8.73;100.00;96010.09;5065066;28;20457;-52
2022/05/31 02:00:14;;;;;;;5.50;4.60;;;;;;;8.72;100.00;96008.44;5056188;28;20076;-53
2022/05/31 02:02:42;;;;;;;5.55;5.00;;;;;;;8.80;100.00;96010.34;5058608;28;21708;-48
2022/05/31 02:05:11;;;;;;;5.60;5.10;;;;;;;8.83;100.00;96006.63;5063352;28;20071;-49
2022/05/31 02:07:39;;;;;;;4.97;4.57;;;;;;;8.98;100.00;96007.78;5059851;28;20531;-52
2022/05/31 02:10:09;;;;;;;4.22;3.92;;;;;;;9.07;100.00;96003.47;5063573;28;20068;-49
2022/05/31 02:12:38;;;;;;;4.50;4.10;;;;;;;9.01;100.00;96004.84;5062328;28;20060;-48
2022/05/31 02:15:07;;;;;;;3.70;3.40;;;;;;;8.98;100.00;96006.00;5060731;28;20103;-54
2022/05/31 02:17:35;;;;;;;4.32;3.80;;;;;;;8.93;100.00;96002.97;5069189;28;20511;-49
2022/05/31 02:20:04;;;;;;;3.95;3.63;;;;;;;8.85;100.00;96000.25;5066222;28;20060;-48
2022/05/31 02:22:33;;;;;;;4.20;3.90;;;;;;;8.83;100.00;96002.19;5062990;28;20076;-51
2022/05/31 02:25:01;;;;;;;4.85;3.90;;;;;;;8.75;100.00;96007.34;5068993;28;20064;-47
2022/05/31 02:27:31;;;;;;;4.15;3.70;;;;;;;8.80;100.00;96005.09;5065070;28;20080;-48
2022/05/31 02:29:59;;;;;;;4.20;3.80;;;;;;;8.86;100.00;95999.25;5070870;28;20094;-49
2022/05/31 02:32:28;;;;;;;4.20;3.80;;;;;;;8.93;100.00;96004.78;5063652;28;20069;-47
2022/05/31 02:34:56;;;;;;;5.35;4.07;;;;;;;8.95;100.00;96005.47;5062989;28;20068;-47
2022/05/31 02:37:24;;;;;;;5.05;4.65;;;;;;;8.93;100.00;96012.66;5067088;28;20060;-55
2022/05/31 02:39:52;;;;;;;4.50;4.20;;;;;;;8.86;100.00;96008.97;5068412;28;20463;-46
2022/05/31 02:42:22;;;;;;;5.07;4.68;;;;;;;8.88;100.00;96013.09;5063417;28;20091;-51
2022/05/31 02:44:52;;;;;;;4.82;4.43;;;;;;;8.74;100.00;96011.78;5067076;28;20095;-50
2022/05/31 02:47:21;;;;;;;6.10;4.65;;;;;;;8.79;100.00;96016.59;5067808;28;20506;-52
2022/05/31 02:49:49;;;;;;;7.32;4.80;;;;;;;8.79;100.00;96022.69;5068742;28;20510;-47
2022/05/31 02:52:18;;;;;;;6.32;4.97;;;;;;;8.78;100.00;96021.03;5067865;28;20068;-52
2022/05/31 02:54:47;;;;;;;5.30;4.90;;;;;;;8.81;100.00;96027.81;5067898;28;20075;-50
2022/05/31 02:57:15;;;;;;;5.53;5.03;;;;;;;8.85;100.00;96029.16;5064912;28;20103;-51
2022/05/31 02:59:43;;;;;;;6.35;5.00;;;;;;;8.85;100.00;96028.34;5063686;28;20261;-50
2022/05/31 03:02:13;;;;;;;5.18;4.75;;;;;;;8.72;100.00;96024.22;5061744;28;20072;-49
2022/05/31 03:04:41;;;;;;;5.38;4.93;;;;;;;8.83;100.00;96025.84;5061808;28;20060;-49
2022/05/31 03:07:10;;;;;;;5.25;4.78;;;;;;;8.80;100.00;96026.94;5064786;28;20091;-51
2022/05/31 03:09:39;;;;;;;5.20;4.80;;;;;;;8.85;100.00;96025.72;5062594;28;20064;-49
2022/05/31 03:12:11;;;;;;;6.03;5.00;;;;;;;9.04;100.00;96036.13;5069794;28;20083;-48
2022/05/31 03:14:42;;;;;;;5.53;4.90;;;;;;;8.92;100.00;96037.31;5068599;28;20068;-51
2022/05/31 03:17:14;;;;;;;5.90;5.30;;;;;;;9.03;100.00;96037.13;5066163;28;20709;-53
2022/05/31 03:19:44;;;;;;;5.50;5.00;;;;;;;9.10;100.00;96038.19;5065826;28;20376;-50
2022/05/31 03:22:16;;;;;;;6.47;4.93;;;;;;;9.16;100.00;96027.09;5062227;28;20068;-49
2022/05/31 03:24:48;;;;;;;5.40;4.90;;;;;;;9.16;100.00;96042.88;5065291;28;20072;-50
2022/05/31 03:27:16;;;;;;;6.40;5.80;;;;;;;9.21;100.00;96035.34;5062779;28;20092;-50
2022/05/31 03:29:47;;;;;;;7.20;5.30;;;;;;;9.11;100.00;96036.38;5067014;28;20084;-51
2022/05/31 03:32:21;;;;;;;7.55;5.10;;;;;;;9.20;100.00;96038.16;5064743;28;20076;-51
2022/05/31 03:34:51;;;;;;;9.15;5.30;;;;;;;9.22;100.00;96046.69;5061049;28;20071;-51
2022/05/31 03:37:23;;;;;;;6.05;4.78;;;;;;;9.24;100.00;96050.84;5065120;28;20064;-50
2022/05/31 03:39:57;;;;;;;5.55;5.05;;;;;;;9.14;100.00;96049.25;5065107;28;20064;-53
2022/05/31 03:42:26;;;;;;;5.68;4.90;;;;;;;9.15;100.00;96035.97;5056964;28;20087;-50
2022/05/31 03:44:58;;;;;;;5.50;4.95;;;;;;;9.34;100.00;96039.44;5065358;28;20638;-47
2022/05/31 03:47:28;;;;;;;6.03;5.53;;;;;;;9.56;100.00;96046.09;5065765;28;20064;-48
2022/05/31 03:49:57;;;;;;;5.95;5.22;;;;;;;9.69;100.00;96055.28;5065717;28;20091;-51
2022/05/31 03:52:25;;;;;;;6.03;5.43;;;;;;;9.79;100.00;96049.13;5063083;28;20071;-49
2022/05/31 03:54:53;;;;;;;5.10;4.60;;;;;;;9.82;100.00;96044.41;5063728;28;20064;-48
2022/05/31 03:57:22;;;;;;;5.30;4.90;;;;;;;9.61;100.00;96044.69;5065905;28;21961;-54
2022/05/31 03:59:50;;;;;;;6.15;5.55;;;;;;;9.51;100.00;96044.75;5066978;28;20494;-54
2022/05/31 04:02:18;;;;;;;6.00;5.50;;;;;;;9.75;100.00;96046.81;5064934;28;20095;-49
2022/05/31 04:04:48;;;;;;;6.40;5.80;;;;;;;10.14;100.00;96048.28;5064699;28;20104;-48
2022/05/31 04:07:16;;;;;;;5.93;5.43;;;;;;;10.40;100.00;96041.28;5061965;28;20064;-52
2022/05/31 04:09:48;;;;;;;6.10;5.47;;;;;;;10.68;100.00;96038.50;5066565;28;20068;-49
2022/05/31 04:12:17;;;;;;;9.27;5.82;;;;;;;10.96;100.00;96040.97;5059767;28;20084;-51
2022/05/31 04:14:47;;;;;;;5.90;5.30;;;;;;;10.80;100.00;96037.25;5063747;28;20079;-47
2022/05/31 04:17:16;;;;;;;6.15;5.55;;;;;;;10.77;100.00;96040.22;5066646;28;20075;-49
2022/05/31 04:19:45;;;;;;;6.15;5.65;;;;;;;10.56;100.00;96037.94;5063310;28;20067;-51
2022/05/31 04:22:17;;;;;;;;;;;;;;;10.70;100.00;96031.25;5057308;28;20067;-50
2022/05/31 04:24:46;;;;;;;8.88;8.07;;;;;;;11.94;100.00;96028.09;5055814;28;19963;-51
2022/05/31 04:27:16;;;;;;;6.90;5.65;;;;;;;11.77;100.00;96027.25;5064198;28;20072;-49
2022/05/31 04:29:48;;;;;;;6.43;5.82;;;;;;;11.69;100.00;96032.50;5061328;28;20219;-50
2022/05/31 04:32:19;;;;;;;6.20;5.60;;;;;;;11.36;100.00;96037.69;5065158;28;20431;-48
2022/05/31 04:34:49;;;;;;;6.90;6.20;;;;;;;11.34;100.00;96053.69;5067723;28;20071;-50
2022/05/31 04:37:20;;;;;;;7.63;6.93;;;;;;;12.77;100.00;96043.78;5061181;28;20464;-51
2022/05/31 04:39:49;;;;;;;5.97;5.38;;;;;;;12.55;100.00;96040.81;5063995;28;20064;-47
2022/05/31 04:42:22;;;;;;;5.68;5.10;;;;;;;11.87;100.00;96049.06;5060250;28;20089;-51
2022/05/31 04:44:52;;;;;;;5.53;5.03;;;;;;;11.46;100.00;96054.22;5062824;28;20079;-53
2022/05/31 04:47:20;;;;;;;6.10;5.50;;;;;;;11.39;100.00;96061.13;5060005;28;20071;-54
2022/05/31 04:49:48;;;;;;;8.13;5.43;;;;;;;11.36;100.00;96050.91;5059326;28;20060;-55
2022/05/31 04:52:17;;;;;;;6.10;5.60;;;;;;;11.39;100.00;96051.41;5055828;28;20554;-54
2022/05/31 04:54:46;;;;;;;6.75;6.05;;;;;;;11.23;100.00;96055.78;5063988;28;20767;-51
2022/05/31 04:57:15;;;;;;;6.87;6.10;;;;;;;11.39;100.00;96064.59;5060186;28;20096;-53
2022/05/31 04:59:43;;;;;;;6.55;5.78;;;;;;;11.44;100.00;96064.13;5058968;28;20499;-50
2022/05/31 05:02:12;;;;;;;7.38;5.75;;;;;;;11.30;100.00;96065.53;5062469;28;20069;-48
2022/05/31 05:04:40;;;;;;;6.88;5.72;;;;;;;11.49;100.00;96055.69;5052014;28;20076;-49
2022/05/31 05:07:08;;;;;;;8.07;7.38;;;;;;;12.15;100.00;96061.97;5061376;28;20075;-52
2022/05/31 05:09:37;;;;;;;7.18;5.30;;;;;;;12.52;100.00;96057.00;5068728;28;20475;-49
2022/05/31 05:12:07;;;;;;;6.13;5.22;;;;;;;13.03;100.00;96054.13;5056440;28;20080;-51
2022/05/31 05:14:35;;;;;;;5.53;5.00;;;;;;;12.83;100.00;96051.88;5068081;28;20083;-52
2022/05/31 05:17:04;;;;;;;6.88;6.00;;;;;;;13.30;100.00;96055.56;5055309;28;20075;-50
2022/05/31 05:19:33;;;;;;;5.80;5.30;;;;;;;12.49;100.00;96053.88;5055085;28;20072;-49
2022/05/31 05:22:01;;;;;;;6.55;4.75;;;;;;;12.59;100.00;96054.53;5055248;28;20068;-49
2022/05/31 05:24:29;;;;;;;6.10;5.55;;;;;;;12.58;100.00;96050.25;5055629;28;20087;-53
2022/05/31 05:26:58;;;;;;;5.35;4.80;;;;;;;12.28;100.00;96038.53;5062138;28;20076;-46
2022/05/31 05:32:13;;;;;;;6.20;5.55;;;;;;;13.87;100.00;96027.97;5057645;28;20068;-54
2022/05/31 05:34:41;;;;;;;6.85;5.70;;;;;;;13.77;100.00;96046.75;5060542;28;20083;-48
2022/05/31 05:37:09;;;;;;;6.43;5.28;;;;;;;13.47;100.00;96035.97;5064897;28;20063;-51
2022/05/31 05:39:38;;;;;;;5.60;5.10;;;;;;;14.31;100.00;96041.38;5060709;28;20075;-54
2022/05/31 05:42:12;;;;;;;5.50;5.00;;;;;;;13.99;100.00;96037.97;5068448;28;20107;-48
2022/05/31 05:44:42;;;;;;;6.43;4.90;;;;;;;14.24;100.00;96037.78;5057440;28;20072;-51
2022/05/31 05:47:14;;;;;;;7.95;5.07;;;;;;;14.41;100.00;96035.84;5058845;28;20073;-53
2022/05/31 05:49:42;;;;;;;5.30;4.80;;;;;;;14.29;100.00;96040.75;5062584;28;20071;-51
2022/05/31 05:52:12;;;;;;;5.00;4.50;;;;;;;15.10;100.00;96041.00;5071618;28;20756;-48
2022/05/31 05:54:40;;;;;;;4.72;3.72;;;;;;;15.40;100.00;96041.81;5069975;28;20162;-52
2022/05/31 05:57:10;;;;;;;4.60;3.58;;;;;;;15.18;100.00;96043.59;5062614;28;20088;-50
2022/05/31 05:59:38;;;;;;;4.50;3.25;;;;;;;15.09;100.00;96044.66;5067233;28;20559;-51
2022/05/31 06:02:12;;;;;;;6.68;3.75;;;;;;;15.25;100.00;96043.66;5066131;28;20064;-52
2022/05/31 06:05:07;;;;;;;4.63;4.15;;;;;;;15.07;100.00;96036.91;5063598;28;20072;-50
2022/05/31 06:07:37;;;;;;;5.05;4.30;;;;;;;14.66;100.00;96039.16;5066040;28;20048;-54
2022/05/31 06:10:09;;;;;;;8.57;4.40;;;;;;;14.66;100.00;96041.81;5063062;28;20072;-50
2022/05/31 06:12:42;;;;;;;4.90;4.32;;;;;;;14.07;100.00;96049.53;5062745;28;20574;-49
2022/05/31 06:15:14;;;;;;;6.28;4.60;;;;;;;14.68;100.00;96045.06;5066965;28;20084;-49
2022/05/31 06:17:45;;;;;;;5.18;4.63;;;;;;;14.40;100.00;96045.63;5059012;28;20060;-48
2022/05/31 06:20:14;;;;;;;5.38;4.30;;;;;;;14.29;100.00;96053.19;5051863;28;20152;-51
2022/05/31 06:22:43;;;;;;;5.07;3.97;;;;;;;14.48;100.00;96047.38;5064575;28;20056;-52
2022/05/31 06:25:14;;;;;;;5.97;3.90;;;;;;;14.42;100.00;96059.53;5058576;28;20069;-50
2022/05/31 06:27:42;;;;;;;3.90;3.50;;;;;;;15.04;100.00;96055.03;5065530;28;20064;-54
2022/05/31 06:30:11;;;;;;;5.40;3.90;;;;;;;15.26;100.00;96050.63;5065118;28;20087;-55
2022/05/31 06:32:39;;;;;;;4.75;4.07;;;;;;;15.48;100.00;96056.81;5065688;28;20060;-49
2022/05/31 06:35:09;;;;;;;5.13;4.20;;;;;;;15.09;100.00;96050.81;5063786;28;20482;-49
2022/05/31 06:37:38;;;;;;;12.18;4.35;;;;;;;14.92;100.00;96046.66;5064728;28;20072;-51
2022/05/31 06:40:09;;;;;;;4.33;3.80;;;;;;;15.20;100.00;96046.84;5070190;28;20068;-47
2022/05/31 06:42:37;;;;;;;5.28;4.03;;;;;;;14.88;100.00;96038.25;5063043;28;20471;-50
2022/05/31 06:45:06;;;;;;;4.45;4.00;;;;;;;15.03;100.00;96051.53;5068214;28;20087;-49
2022/05/31 06:47:34;;;;;;;5.47;4.55;;;;;;;15.30;100.00;96047.41;5057671;28;20076;-51
2022/05/31 06:50:03;;;;;;;4.53;4.00;;;;;;;15.47;100.00;96044.56;5064618;28;20041;-47
2022/05/31 06:58:05;;;;;;;5.55;4.10;;;;;;;15.75;100.00;96042.88;5068408;28;20072;-49
2022/05/31 07:00:34;;;;;;;4.28;3.88;;;;;;;15.47;100.00;96033.94;5058067;28;20092;-49
2022/05/31 07:03:02;;;;;;;4.88;3.60;;;;;;;15.43;100.00;96036.13;5057891;28;20088;-51
2022/05/31 07:05:30;;;;;;;4.13;3.63;;;;;;;15.98;100.00;96029.44;5059246;28;20076;-53
2022/05/31 07:08:00;;;;;;;5.38;3.67;;;;;;;15.44;100.00;96029.81;5063237;28;20071;-49
2022/05/31 07:10:28;;;;;;;3.83;3.53;;;;;;;16.37;100.00;96022.84;5057132;28;20468;-52
2022/05/31 07:12:56;;;;;;;6.95;3.95;;;;;;;16.36;100.00;96016.69;5069368;28;20071;-52
2022/05/31 07:15:26;;;;;;;5.72;3.80;;;;;;;16.45;100.00;96020.06;5064014;28;20092;-52
2022/05/31 07:17:56;;;;;;;4.00;3.60;;;;;;;16.51;100.00;96026.44;5062977;28;20110;-47
2022/05/31 07:20:24;;;;;;;3.70;3.30;;;;;;;16.76;100.00;96027.72;5068252;28;20071;-51
2022/05/31 07:22:52;;;;;;;3.95;3.30;;;;;;;16.48;100.00;96026.81;5058853;28;20092;-50
2022/05/31 07:25:22;;;;;;;5.57;3.45;;;;;;;16.49;100.00;96026.66;5068852;28;20079;-50
2022/05/31 07:27:51;;;;;;;3.43;3.13;;;;;;;17.01;100.00;96020.09;5061330;28;20074;-51
2022/05/31 07:30:20;;;;;;;3.30;2.90;;;;;;;16.82;100.00;96018.91;5059712;28;20073;-49
2022/05/31 07:32:49;;;;;;;3.95;2.90;;;;;;;16.69;100.00;96023.28;5065311;28;20044;-47
2022/05/31 07:35:39;;;;;;;3.83;2.80;;;;;;;16.99;100.00;96022.09;5064825;28;20099;-47
2022/05/31 07:38:09;;;;;;;2.67;2.47;;;;;;;16.63;100.00;96022.25;5056372;28;20068;-50
2022/05/31 07:40:39;;;;;;;9.45;3.15;;;;;;;16.83;100.00;96011.78;5065177;28;20080;-51
2022/05/31 07:43:07;;;;;;;3.93;2.70;;;;;;;17.18;100.00;96006.47;5062941;28;20075;-50
2022/05/31 07:45:35;;;;;;;3.30;2.63;;;;;;;17.38;100.00;96007.38;5061420;28;20186;-49
2022/05/31 07:48:04;;;;;;;3.40;3.10;;;;;;;17.48;100.00;96010.50;5062321;28;20083;-50
2022/05/31 07:50:33;;;;;;;3.33;2.90;;;;;;;17.27;100.00;96015.91;5056279;28;20514;-51
2022/05/31 07:53:03;;;;;;;3.30;3.00;;;;;;;17.00;100.00;96013.13;5059275;28;20083;-50
2022/05/31 07:55:32;;;;;;;3.80;2.97;;;;;;;17.19;100.00;96003.59;5051186;28;20078;-49
2022/05/31 08:00:47;;;;;;;4.82;3.10;;;;;;;17.74;100.00;95998.28;5066286;28;20071;-53
2022/05/31 08:03:15;;;;;;;3.33;3.03;;;;;;;18.04;100.00;96004.13;5066695;28;20088;-53
2022/05/31 08:05:44;;;;;;;3.40;3.10;;;;;;;17.91;100.00;96009.44;5058837;28;20311;-54
2022/05/31 08:08:13;;;;;;;4.38;3.30;;;;;;;18.81;100.00;96001.94;5049999;28;20080;-50
2022/05/31 08:11:03;;;;;;;3.38;2.83;;;;;;;17.98;100.00;96008.41;5055337;28;20076;-51
2022/05/31 08:13:33;;;;;;;3.60;2.90;;;;;;;18.93;100.00;96002.94;5050502;28;20088;-49
2022/05/31 08:16:03;;;;;;;3.88;2.88;;;;;;;18.98;100.00;96003.94;5059661;28;20071;-48
2022/05/31 08:18:32;;;;;;;3.85;3.30;;;;;;;18.72;100.00;96012.84;5062930;28;20092;-47
2022/05/31 08:21:01;;;;;;;3.25;2.95;;;;;;;19.37;100.00;96009.41;5050519;28;20084;-52
2022/05/31 08:23:30;;;;;;;3.28;2.40;;;;;;;19.51;100.00;96007.50;5068600;28;20064;-50
2022/05/31 08:25:59;;;;;;;3.28;2.85;;;;;;;19.68;100.00;95995.31;5061575;28;20067;-48
2022/05/31 08:28:27;;;;;;;4.93;2.45;;;;;;;19.62;100.00;95996.16;5056582;28;20072;-47
2022/05/31 08:31:02;;;;;;;2.67;2.42;;;;;;;19.53;100.00;96003.59;5065710;28;20079;-49
2022/05/31 08:33:31;;;;;;;2.78;2.30;;;;;;;19.91;100.00;96000.16;5062478;28;20072;-49
2022/05/31 08:36:00;;;;;;;2.55;2.35;;;;;;;19.91;100.00;95998.28;5058976;28;20506;-48
2022/05/31 08:38:31;;;;;;;2.65;2.30;;;;;;;20.13;100.00;95998.78;5059287;28;20075;-49
2022/05/31 08:41:08;;;;;;;2.53;2.20;;;;;;;19.78;100.00;95979.63;5065317;28;20083;-49
2022/05/31 08:43:51;;;;;;;2.75;2.30;;;;;;;20.07;100.00;95978.22;5059181;28;20060;-51
2022/05/31 08:46:33;;;;;;;3.60;2.28;;;;;;;19.37;100.00;95975.47;5062387;28;20079;-51
2022/05/31 08:49:09;;;;;;;2.50;2.30;;;;;;;19.58;100.00;95976.19;5057361;28;20129;-50
2022/05/31 08:51:53;;;;;;;3.78;2.70;;;;;;;19.66;100.00;95978.69;5055284;28;20772;-51
2022/05/31 08:57:33;;;;;;;3.85;2.10;;;;;;;20.04;100.00;95965.28;5050403;28;20073;-54
2022/05/31 09:00:07;;;;;;;4.57;2.20;;;;;;;19.96;100.00;95962.88;5065728;28;20408;-49
2022/05/31 09:02:42;;;;;;;5.88;2.33;;;;;;;19.79;100.00;95972.44;5066999;28;20045;-52
2022/05/31 09:05:26;;;;;;;2.77;2.00;;;;;;;19.39;100.00;95970.72;5058869;28;20810;-50
2022/05/31 09:07:58;;;;;;;4.18;1.95;;;;;;;19.58;100.00;95962.81;5049204;28;20072;-48
2022/05/31 09:10:30;;;;;;;2.10;1.90;;;;;;;19.94;100.00;95959.56;5053412;28;20069;-48
2022/05/31 09:13:02;;;;;;;3.15;1.90;;;;;;;19.52;100.00;95963.69;5054873;28;20072;-47
2022/05/31 09:15:36;;;;;;;2.95;1.75;;;;;;;19.85;100.00;95958.19;5065099;28;20091;-47
2022/05/31 09:18:10;;;;;;;2.42;1.60;;;;;;;19.91;91.56;95962.69;5063655;28;20080;-50
2022/05/31 09:20:41;;;;;;;2.05;1.70;;;;;;;20.14;100.00;95951.41;5063358;28;20056;-52
2022/05/31 09:23:10;;;;;;;2.53;1.83;;;;;;;19.90;100.00;95951.16;5057743;28;20072;-52
2022/05/31 09:25:41;;;;;;;1.92;1.70;;;;;;;19.98;99.28;95951.94;5062749;28;20458;-54
2022/05/31 09:28:20;;;;;;;5.78;1.92;;;;;;;20.53;99.61;95947.63;5059092;28;20486;-51
2022/05/31 09:30:49;;;;;;;4.05;2.00;;;;;;;20.61;95.02;95941.16;5064938;28;20056;-48
2022/05/31 09:33:23;;;;;;;2.05;1.80;;;;;;;20.40;99.93;95947.69;5067585;28;20076;-49
2022/05/31 09:35:58;;;;;;;2.60;1.90;;;;;;;20.47;98.19;95948.47;5062977;28;20080;-52
2022/05/31 09:38:38;;;;;;;2.88;1.80;;;;;;;20.79;91.50;95943.88;5065386;28;20119;-49
2022/05/31 09:41:12;;;;;;;1.98;1.58;;;;;;;20.34;88.56;95946.72;5061299;28;20073;-52
2022/05/31 09:43:42;;;;;;;2.97;1.83;;;;;;;20.95;86.87;95942.47;5053396;28;20064;-51
2022/05/31 09:46:11;;;;;;;;;;;;;;;21.16;92.06;95946.56;5062551;28;20079;-53
2022/05/31 09:48:46;;;;;;;4.15;1.85;;;;;;;21.30;89.45;95947.25;5062135;28;19955;-50
2022/05/31 09:51:23;;;;;;;2.50;1.67;;;;;;;21.52;92.67;95950.31;5050603;28;20523;-49
2022/05/31 09:59:26;;;;;;;2.10;1.90;;;;;;;21.46;92.51;95935.13;5064614;28;20068;-53
2022/05/31 10:01:56;;;;;;;3.00;1.80;;;;;;;21.87;93.95;95930.84;5047454;28;20672;-55
2022/05/31 10:04:28;;;;;;;2.28;1.70;;;;;;;21.77;97.05;95926.03;5057331;28;20064;-55
2022/05/31 10:07:01;;;;;;;4.20;1.70;;;;;;;22.21;85.40;95922.09;5061436;28;20587;-54
2022/05/31 10:09:33;;;;;;;3.15;1.60;;;;;;;21.93;76.75;95938.00;5067720;28;20072;-55
2022/05/31 10:12:20;;;;;;;4.13;2.08;;;;;;;21.94;81.13;95937.75;5068300;28;20088;-50
2022/05/31 10:14:50;;;;;;;2.17;1.77;;;;;;;22.15;88.52;95928.38;5055444;28;20459;-52
2022/05/31 10:17:37;;;;;;;5.28;1.98;;;;;;;21.63;95.51;95925.41;5051014;28;20076;-51
2022/05/31 10:20:21;;;;;;;2.50;1.83;;;;;;;21.65;89.14;95919.81;5059887;28;20482;-52
2022/05/31 10:22:58;;;;;;;2.15;1.80;;;;;;;22.27;79.48;95920.38;5060355;28;20067;-52
2022/05/31 10:25:31;;;;;;;3.22;1.58;;;;;;;22.63;78.43;95910.44;5054362;28;20061;-53
2022/05/31 10:28:02;;;;;;;2.20;1.73;;;;;;;22.33;79.25;95908.66;5059894;28;20158;-48
2022/05/31 10:30:32;;;;;;;2.78;2.00;;;;;;;21.89;77.95;95915.34;5065658;28;20530;-50
2022/05/31 10:33:07;;;;;;;2.55;1.50;;;;;;;22.55;71.60;95908.13;5060795;28;20080;-52
2022/05/31 10:35:39;;;;;;;3.38;1.80;;;;;;;23.08;76.91;95907.16;5060466;28;20068;-52
2022/05/31 10:38:11;;;;;;;1.80;1.58;;;;;;;22.81;73.29;95896.88;5056650;28;20060;-50
2022/05/31 10:40:44;;;;;;;2.13;1.55;;;;;;;22.44;69.51;95896.31;5059134;28;20132;-49
2022/05/31 10:43:27;;;;;;;2.53;1.60;;;;;;;22.51;83.82;95897.03;5051181;28;20068;-48
2022/05/31 10:45:56;;;;;;;2.85;1.70;;;;;;;22.94;74.15;95883.22;5064184;28;20540;-50
2022/05/31 10:48:25;;;;;;;2.20;1.60;;;;;;;22.40;77.36;95879.00;5060829;28;20581;-50
2022/05/31 10:51:01;;;;;;;4.55;1.60;;;;;;;22.77;66.95;95890.34;5064156;28;20076;-48
2022/05/31 10:53:39;;;;;;;2.60;1.65;;;;;;;22.74;68.93;95883.56;5070281;28;20056;-52
2022/05/31 10:56:13;;;;;;;2.58;1.67;;;;;;;23.09;67.51;95879.22;5060224;28;20060;-51
2022/05/31 10:58:54;;;;;;;1.70;1.38;;;;;;;23.78;63.02;95880.06;5069694;28;20115;-49
2022/05/31 11:01:35;;;;;;;3.10;1.60;;;;;;;23.47;63.82;95881.34;5058419;28;20072;-52
2022/05/31 11:04:13;;;;;;;1.70;1.50;;;;;;;24.08;63.78;95881.63;5056332;28;20060;-49
2022/05/31 11:06:57;;;;;;;4.20;1.60;;;;;;;23.94;54.44;95883.81;5059655;28;20694;-54
2022/05/31 11:12:52;;;;;;;6.20;2.25;;;;;;;23.65;56.09;95873.06;5022650;28;20064;-48
2022/05/31 11:15:28;;;;;;;2.78;1.60;;;;;;;24.27;60.06;95872.25;5020899;28;20104;-52
2022/05/31 11:18:06;;;;;;;2.03;1.60;;;;;;;24.53;57.45;95861.88;5048947;28;20552;-49
2022/05/31 11:20:39;;;;;;;3.70;1.70;;;;;;;24.13;57.90;95869.06;5069651;28;20056;-53
2022/05/31 11:23:21;;;;;;;2.60;1.80;;;;;;;24.41;57.65;95869.25;5053038;28;20460;-53
2022/05/31 11:26:18;;;;;;;1.67;1.58;;;;;;;24.87;54.79;95871.53;5063347;28;20067;-51
2022/05/31 11:29:17;;;;;;;2.80;1.80;;;;;;;24.75;51.36;95865.44;5061995;28;20562;-53
2022/05/31 11:31:55;;;;;;;2.83;1.60;;;;;;;24.64;52.41;95863.69;5065411;28;20089;-50
2022/05/31 11:34:39;;;;;;;2.53;1.60;;;;;;;24.74;54.64;95869.22;5067782;28;20067;-51
2022/05/31 11:37:28;;;;;;;2.42;1.77;;;;;;;25.39;53.39;95856.81;5050671;28;20079;-51
2022/05/31 11:40:12;;;;;;;3.45;1.88;;;;;;;24.76;50.66;95855.47;5061861;28;20044;-51
2022/05/31 11:43:16;;;;;;;3.10;1.63;;;;;;;24.92;52.70;95857.31;5062588;28;20167;-51
2022/05/31 11:45:47;;;;;;;2.60;1.73;;;;;;;24.46;53.58;95845.88;5016745;28;20515;-53
2022/05/31 11:48:48;;;;;;;2.03;1.80;;;;;;;24.62;50.97;95852.31;5049769;28;20085;-52
2022/05/31 11:51:32;;;;;;;3.97;1.95;;;;;;;24.29;48.38;95850.44;5027232;28;20497;-52
2022/05/31 11:54:30;;;;;;;3.38;2.08;;;;;;;24.25;46.11;95855.50;5052440;28;20095;-55
2022/05/31 11:57:06;;;;;;;3.13;1.90;;;;;;;24.92;44.54;95854.63;5062409;28;21414;-48
2022/05/31 11:59:39;;;;;;;2.40;1.70;;;;;;;25.31;44.03;95852.69;5061623;28;20071;-50
2022/05/31 12:02:15;;;;;;;2.50;1.50;;;;;;;25.04;46.38;95860.69;5067404;28;20075;-54
2022/05/31 12:04:46;;;;;;;2.97;2.10;;;;;;;24.86;49.93;95861.00;5060688;28;20565;-54
2022/05/31 12:07:18;;;;;;;5.05;1.70;;;;;;;24.93;54.33;95853.53;5056902;28;20523;-54
2022/05/31 12:09:49;;;;;;;3.72;2.30;;;;;;;24.85;53.28;95854.78;5062422;28;20558;-51
2022/05/31 12:12:21;;;;;;;2.40;1.80;;;;;;;25.29;50.98;95846.75;5068543;28;20076;-51
2022/05/31 12:14:51;;;;;;;4.25;1.70;;;;;;;25.46;49.24;95854.72;5063158;28;20068;-51
2022/05/31 12:17:23;;;;;;;2.47;1.60;;;;;;;25.42;49.90;95858.19;5052409;28;20080;-54
2022/05/31 12:19:54;;;;;;;3.70;1.60;;;;;;;26.26;47.78;95849.56;5055469;28;20064;-54